sensor_id;sensor_type;location;lat;lon;timestamp;P1;P2;P0
60816;PMS5003;51921;51.518;-3.188;2023-10-09T00:01:14;19;18;
60816;PMS5003;51921;51.518;-3.188;2023-10-09T00:03:40;23;23;
60816;PMS5003;51921;51.518;-3.188;2023-10-09T00:06:05;21;20;
60816;PMS5003;51921;51.518;-3.188;2023-10-09T00:08:30;21;19;
60816;PMS5003;51921;51.518;-3.188;2023-10-09T00:10:56;18;17;
60816;PMS5003;51921;51.518;-3.188;2023-10-09T00:13:21;22;21;
60816;PMS5003;51921;51.518;-3.188;2023-10-09T00:15:46;17;17;
60816;PMS5003;51921;51.518;-3.188;2023-10-09T00:18:11;22;19;
60816;PMS5003;51921;51.518;-3.188;2023-10-09T00:20:36;19;17;
60816;PMS5003;51921;51.518;-3.188;2023-10-09T00:23:01;20;19;
60816;PMS5003;51921;51.518;-3.188;2023-10-09T00:25:26;17;16;
60816;PMS5003;51921;51.518;-3.188;2023-10-09T00:27:52;21;20;
60816;PMS5003;51921;51.518;-3.188;2023-10-09T00:30:17;19;18;
60816;PMS5003;51921;51.518;-3.188;2023-10-09T00:32:42;19;18;
60816;PMS5003;51921;51.518;-3.188;2023-10-09T00:35:08;23;23;
60816;PMS5003;51921;51.518;-3.188;2023-10-09T00:37:34;23;22;
60816;PMS5003;51921;51.518;-3.188;2023-10-09T00:39:59;20;18;
60816;PMS5003;51921;51.518;-3.188;2023-10-09T00:42:25;18;17;
60816;PMS5003;51921;51.518;-3.188;2023-10-09T00:44:50;23;19;
60816;PMS5003;51921;51.518;-3.188;2023-10-09T00:47:15;17;16;
60816;PMS5003;51921;51.518;-3.188;2023-10-09T00:49:41;20;19;
60816;PMS5003;51921;51.518;-3.188;2023-10-09T00:52:06;18;17;
60816;PMS5003;51921;51.518;-3.188;2023-10-09T00:54:31;16;16;
60816;PMS5003;51921;51.518;-3.188;2023-10-09T00:56:56;17;17;
60816;PMS5003;51921;51.518;-3.188;2023-10-09T00:59:22;17;15;
60816;PMS5003;51921;51.518;-3.188;2023-10-09T01:01:47;17;17;
60816;PMS5003;51921;51.518;-3.188;2023-10-09T01:04:12;15;15;
60816;PMS5003;51921;51.518;-3.188;2023-10-09T01:06:38;18;16;
60816;PMS5003;51921;51.518;-3.188;2023-10-09T01:09:03;19;17;
60816;PMS5003;51921;51.518;-3.188;2023-10-09T01:11:28;14;14;
60816;PMS5003;51921;51.518;-3.188;2023-10-09T01:13:54;17;17;
60816;PMS5003;51921;51.518;-3.188;2023-10-09T01:16:20;14;13;
60816;PMS5003;51921;51.518;-3.188;2023-10-09T01:18:45;19;15;
60816;PMS5003;51921;51.518;-3.188;2023-10-09T01:21:10;15;15;
60816;PMS5003;51921;51.518;-3.188;2023-10-09T01:23:35;16;15;
60816;PMS5003;51921;51.518;-3.188;2023-10-09T01:26:00;17;16;
60816;PMS5003;51921;51.518;-3.188;2023-10-09T01:28:25;15;14;
60816;PMS5003;51921;51.518;-3.188;2023-10-09T01:30:51;15;15;
60816;PMS5003;51921;51.518;-3.188;2023-10-09T01:33:16;13;13;
60816;PMS5003;51921;51.518;-3.188;2023-10-09T01:35:41;19;17;
60816;PMS5003;51921;51.518;-3.188;2023-10-09T01:38:06;16;15;
60816;PMS5003;51921;51.518;-3.188;2023-10-09T01:40:32;16;15;
60816;PMS5003;51921;51.518;-3.188;2023-10-09T01:42:57;15;14;
60816;PMS5003;51921;51.518;-3.188;2023-10-09T01:45:22;16;15;
60816;PMS5003;51921;51.518;-3.188;2023-10-09T01:47:48;17;15;
60816;PMS5003;51921;51.518;-3.188;2023-10-09T01:50:13;15;15;
60816;PMS5003;51921;51.518;-3.188;2023-10-09T01:52:38;21;20;
60816;PMS5003;51921;51.518;-3.188;2023-10-09T01:55:04;16;16;
60816;PMS5003;51921;51.518;-3.188;2023-10-09T01:57:29;18;17;
60816;PMS5003;51921;51.518;-3.188;2023-10-09T01:59:55;19;16;
60816;PMS5003;51921;51.518;-3.188;2023-10-09T02:02:20;15;13;
60816;PMS5003;51921;51.518;-3.188;2023-10-09T02:04:46;15;15;
60816;PMS5003;51921;51.518;-3.188;2023-10-09T02:07:11;14;13;
60816;PMS5003;51921;51.518;-3.188;2023-10-09T02:09:37;16;13;
60816;PMS5003;51921;51.518;-3.188;2023-10-09T02:12:02;17;17;
60816;PMS5003;51921;51.518;-3.188;2023-10-09T02:14:27;20;19;
60816;PMS5003;51921;51.518;-3.188;2023-10-09T02:16:53;21;20;
60816;PMS5003;51921;51.518;-3.188;2023-10-09T02:19:18;19;17;
60816;PMS5003;51921;51.518;-3.188;2023-10-09T02:21:44;24;21;
60816;PMS5003;51921;51.518;-3.188;2023-10-09T02:24:09;24;21;
60816;PMS5003;51921;51.518;-3.188;2023-10-09T02:26:34;23;23;
60816;PMS5003;51921;51.518;-3.188;2023-10-09T02:28:59;29;28;
60816;PMS5003;51921;51.518;-3.188;2023-10-09T02:31:25;28;27;
60816;PMS5003;51921;51.518;-3.188;2023-10-09T02:33:50;29;28;
60816;PMS5003;51921;51.518;-3.188;2023-10-09T02:36:16;35;33;
60816;PMS5003;51921;51.518;-3.188;2023-10-09T02:38:42;32;30;
60816;PMS5003;51921;51.518;-3.188;2023-10-09T02:41:07;38;36;
60816;PMS5003;51921;51.518;-3.188;2023-10-09T02:43:33;45;40;
60816;PMS5003;51921;51.518;-3.188;2023-10-09T02:45:58;42;40;
60816;PMS5003;51921;51.518;-3.188;2023-10-09T02:48:24;40;38;
60816;PMS5003;51921;51.518;-3.188;2023-10-09T02:50:49;46;44;
60816;PMS5003;51921;51.518;-3.188;2023-10-09T02:53:14;44;40;
60816;PMS5003;51921;51.518;-3.188;2023-10-09T02:55:40;43;40;
60816;PMS5003;51921;51.518;-3.188;2023-10-09T02:58:05;44;41;
60816;PMS5003;51921;51.518;-3.188;2023-10-09T03:00:31;41;37;
60816;PMS5003;51921;51.518;-3.188;2023-10-09T03:02:56;40;38;
60816;PMS5003;51921;51.518;-3.188;2023-10-09T03:05:22;44;40;
60816;PMS5003;51921;51.518;-3.188;2023-10-09T03:07:47;36;32;
60816;PMS5003;51921;51.518;-3.188;2023-10-09T03:10:13;43;39;
60816;PMS5003;51921;51.518;-3.188;2023-10-09T03:12:38;47;45;
60816;PMS5003;51921;51.518;-3.188;2023-10-09T03:15:04;43;41;
60816;PMS5003;51921;51.518;-3.188;2023-10-09T03:17:29;42;38;
60816;PMS5003;51921;51.518;-3.188;2023-10-09T03:19:55;42;40;
60816;PMS5003;51921;51.518;-3.188;2023-10-09T03:22:20;46;45;
60816;PMS5003;51921;51.518;-3.188;2023-10-09T03:24:46;46;42;
60816;PMS5003;51921;51.518;-3.188;2023-10-09T03:27:11;50;45;
60816;PMS5003;51921;51.518;-3.188;2023-10-09T03:29:37;35;34;
60816;PMS5003;51921;51.518;-3.188;2023-10-09T03:32:03;51;43;
60816;PMS5003;51921;51.518;-3.188;2023-10-09T03:34:28;37;36;
60816;PMS5003;51921;51.518;-3.188;2023-10-09T03:36:54;30;29;
60816;PMS5003;51921;51.518;-3.188;2023-10-09T03:39:19;32;31;
60816;PMS5003;51921;51.518;-3.188;2023-10-09T03:41:44;29;27;
60816;PMS5003;51921;51.518;-3.188;2023-10-09T03:44:09;32;32;
60816;PMS5003;51921;51.518;-3.188;2023-10-09T03:46:34;29;28;
60816;PMS5003;51921;51.518;-3.188;2023-10-09T03:48:59;31;30;
60816;PMS5003;51921;51.518;-3.188;2023-10-09T03:51:26;28;26;
60816;PMS5003;51921;51.518;-3.188;2023-10-09T03:53:51;26;24;
60816;PMS5003;51921;51.518;-3.188;2023-10-09T03:56:16;23;22;
60816;PMS5003;51921;51.518;-3.188;2023-10-09T03:58:42;30;25;
60816;PMS5003;51921;51.518;-3.188;2023-10-09T04:01:07;26;19;
60816;PMS5003;51921;51.518;-3.188;2023-10-09T04:03:33;20;20;
60816;PMS5003;51921;51.518;-3.188;2023-10-09T04:05:58;25;22;
60816;PMS5003;51921;51.518;-3.188;2023-10-09T04:08:23;19;19;
60816;PMS5003;51921;51.518;-3.188;2023-10-09T04:10:48;22;21;
60816;PMS5003;51921;51.518;-3.188;2023-10-09T04:13:14;24;20;
60816;PMS5003;51921;51.518;-3.188;2023-10-09T04:15:39;21;19;
60816;PMS5003;51921;51.518;-3.188;2023-10-09T04:18:04;22;20;
60816;PMS5003;51921;51.518;-3.188;2023-10-09T04:20:30;19;18;
60816;PMS5003;51921;51.518;-3.188;2023-10-09T04:22:55;18;18;
60816;PMS5003;51921;51.518;-3.188;2023-10-09T04:25:20;22;20;
60816;PMS5003;51921;51.518;-3.188;2023-10-09T04:27:46;23;22;
60816;PMS5003;51921;51.518;-3.188;2023-10-09T04:30:11;23;21;
60816;PMS5003;51921;51.518;-3.188;2023-10-09T04:32:37;20;20;
60816;PMS5003;51921;51.518;-3.188;2023-10-09T04:35:02;20;19;
60816;PMS5003;51921;51.518;-3.188;2023-10-09T04:37:27;24;23;
60816;PMS5003;51921;51.518;-3.188;2023-10-09T04:39:52;22;22;
60816;PMS5003;51921;51.518;-3.188;2023-10-09T04:42:18;22;21;
60816;PMS5003;51921;51.518;-3.188;2023-10-09T04:44:44;28;27;
60816;PMS5003;51921;51.518;-3.188;2023-10-09T04:47:09;24;22;
60816;PMS5003;51921;51.518;-3.188;2023-10-09T04:49:35;24;24;
60816;PMS5003;51921;51.518;-3.188;2023-10-09T04:52:00;22;22;
60816;PMS5003;51921;51.518;-3.188;2023-10-09T04:54:25;17;17;
60816;PMS5003;51921;51.518;-3.188;2023-10-09T04:56:51;16;15;
60816;PMS5003;51921;51.518;-3.188;2023-10-09T04:59:16;19;18;
60816;PMS5003;51921;51.518;-3.188;2023-10-09T05:01:42;23;20;
60816;PMS5003;51921;51.518;-3.188;2023-10-09T05:04:07;22;20;
60816;PMS5003;51921;51.518;-3.188;2023-10-09T05:06:33;21;18;
60816;PMS5003;51921;51.518;-3.188;2023-10-09T05:08:58;24;20;
60816;PMS5003;51921;51.518;-3.188;2023-10-09T05:11:24;17;16;
60816;PMS5003;51921;51.518;-3.188;2023-10-09T05:13:49;22;18;
60816;PMS5003;51921;51.518;-3.188;2023-10-09T05:16:16;20;18;
60816;PMS5003;51921;51.518;-3.188;2023-10-09T05:18:41;18;17;
60816;PMS5003;51921;51.518;-3.188;2023-10-09T05:21:06;16;16;
60816;PMS5003;51921;51.518;-3.188;2023-10-09T05:23:31;17;17;
60816;PMS5003;51921;51.518;-3.188;2023-10-09T05:25:56;19;18;
60816;PMS5003;51921;51.518;-3.188;2023-10-09T05:28:22;16;16;
60816;PMS5003;51921;51.518;-3.188;2023-10-09T05:30:47;18;17;
60816;PMS5003;51921;51.518;-3.188;2023-10-09T05:33:13;18;17;
60816;PMS5003;51921;51.518;-3.188;2023-10-09T05:35:39;16;15;
60816;PMS5003;51921;51.518;-3.188;2023-10-09T05:38:04;16;14;
60816;PMS5003;51921;51.518;-3.188;2023-10-09T05:40:30;15;15;
60816;PMS5003;51921;51.518;-3.188;2023-10-09T05:42:55;16;15;
60816;PMS5003;51921;51.518;-3.188;2023-10-09T05:45:20;15;15;
60816;PMS5003;51921;51.518;-3.188;2023-10-09T05:47:46;17;16;
60816;PMS5003;51921;51.518;-3.188;2023-10-09T05:50:11;20;20;
60816;PMS5003;51921;51.518;-3.188;2023-10-09T05:52:36;17;16;
60816;PMS5003;51921;51.518;-3.188;2023-10-09T05:55:02;21;20;
60816;PMS5003;51921;51.518;-3.188;2023-10-09T05:57:27;20;19;
60816;PMS5003;51921;51.518;-3.188;2023-10-09T05:59:53;20;19;
60816;PMS5003;51921;51.518;-3.188;2023-10-09T06:02:19;21;18;
60816;PMS5003;51921;51.518;-3.188;2023-10-09T06:04:44;20;19;
60816;PMS5003;51921;51.518;-3.188;2023-10-09T06:07:10;18;18;
60816;PMS5003;51921;51.518;-3.188;2023-10-09T06:09:35;18;18;
60816;PMS5003;51921;51.518;-3.188;2023-10-09T06:12:01;16;15;
60816;PMS5003;51921;51.518;-3.188;2023-10-09T06:14:26;16;15;
60816;PMS5003;51921;51.518;-3.188;2023-10-09T06:16:52;20;18;
60816;PMS5003;51921;51.518;-3.188;2023-10-09T06:19:17;19;18;
60816;PMS5003;51921;51.518;-3.188;2023-10-09T06:21:43;20;19;
60816;PMS5003;51921;51.518;-3.188;2023-10-09T06:24:08;14;14;
60816;PMS5003;51921;51.518;-3.188;2023-10-09T06:26:33;19;18;
60816;PMS5003;51921;51.518;-3.188;2023-10-09T06:28:58;17;17;
60816;PMS5003;51921;51.518;-3.188;2023-10-09T06:31:24;21;18;
60816;PMS5003;51921;51.518;-3.188;2023-10-09T06:33:49;19;17;
60816;PMS5003;51921;51.518;-3.188;2023-10-09T06:36:14;20;18;
60816;PMS5003;51921;51.518;-3.188;2023-10-09T06:38:40;18;15;
60816;PMS5003;51921;51.518;-3.188;2023-10-09T06:41:05;20;17;
60816;PMS5003;51921;51.518;-3.188;2023-10-09T06:43:31;16;15;
60816;PMS5003;51921;51.518;-3.188;2023-10-09T06:45:56;19;16;
60816;PMS5003;51921;51.518;-3.188;2023-10-09T06:48:22;17;16;
60816;PMS5003;51921;51.518;-3.188;2023-10-09T06:50:47;21;17;
60816;PMS5003;51921;51.518;-3.188;2023-10-09T06:53:13;21;19;
60816;PMS5003;51921;51.518;-3.188;2023-10-09T06:55:38;17;16;
60816;PMS5003;51921;51.518;-3.188;2023-10-09T06:58:03;16;16;
60816;PMS5003;51921;51.518;-3.188;2023-10-09T07:00:29;18;17;
60816;PMS5003;51921;51.518;-3.188;2023-10-09T07:02:54;17;15;
60816;PMS5003;51921;51.518;-3.188;2023-10-09T07:05:19;22;21;
60816;PMS5003;51921;51.518;-3.188;2023-10-09T07:07:45;23;19;
60816;PMS5003;51921;51.518;-3.188;2023-10-09T07:10:10;16;16;
60816;PMS5003;51921;51.518;-3.188;2023-10-09T07:12:36;15;15;
60816;PMS5003;51921;51.518;-3.188;2023-10-09T07:15:02;14;14;
60816;PMS5003;51921;51.518;-3.188;2023-10-09T07:17:27;19;17;
60816;PMS5003;51921;51.518;-3.188;2023-10-09T07:19:53;15;15;
60816;PMS5003;51921;51.518;-3.188;2023-10-09T07:22:18;18;17;
60816;PMS5003;51921;51.518;-3.188;2023-10-09T07:24:43;15;15;
60816;PMS5003;51921;51.518;-3.188;2023-10-09T07:27:09;16;14;
60816;PMS5003;51921;51.518;-3.188;2023-10-09T07:29:34;15;15;
60816;PMS5003;51921;51.518;-3.188;2023-10-09T07:32:00;15;13;
60816;PMS5003;51921;51.518;-3.188;2023-10-09T07:34:25;13;11;
60816;PMS5003;51921;51.518;-3.188;2023-10-09T07:36:50;16;16;
60816;PMS5003;51921;51.518;-3.188;2023-10-09T07:39:16;13;12;
60816;PMS5003;51921;51.518;-3.188;2023-10-09T07:41:41;13;13;
60816;PMS5003;51921;51.518;-3.188;2023-10-09T07:44:06;14;13;
60816;PMS5003;51921;51.518;-3.188;2023-10-09T07:46:32;14;13;
60816;PMS5003;51921;51.518;-3.188;2023-10-09T07:48:58;18;16;
60816;PMS5003;51921;51.518;-3.188;2023-10-09T07:51:23;21;21;
60816;PMS5003;51921;51.518;-3.188;2023-10-09T07:53:49;17;17;
60816;PMS5003;51921;51.518;-3.188;2023-10-09T07:56:13;18;18;
60816;PMS5003;51921;51.518;-3.188;2023-10-09T07:58:39;19;17;
60816;PMS5003;51921;51.518;-3.188;2023-10-09T08:01:04;21;19;
60816;PMS5003;51921;51.518;-3.188;2023-10-09T08:03:29;18;17;
60816;PMS5003;51921;51.518;-3.188;2023-10-09T08:05:54;17;17;
60816;PMS5003;51921;51.518;-3.188;2023-10-09T08:08:20;14;13;
60816;PMS5003;51921;51.518;-3.188;2023-10-09T08:10:45;18;17;
60816;PMS5003;51921;51.518;-3.188;2023-10-09T08:13:11;16;15;
60816;PMS5003;51921;51.518;-3.188;2023-10-09T08:15:36;15;13;
60816;PMS5003;51921;51.518;-3.188;2023-10-09T08:18:02;14;13;
60816;PMS5003;51921;51.518;-3.188;2023-10-09T08:20:27;18;18;
60816;PMS5003;51921;51.518;-3.188;2023-10-09T08:22:52;17;17;
60816;PMS5003;51921;51.518;-3.188;2023-10-09T08:25:18;16;15;
60816;PMS5003;51921;51.518;-3.188;2023-10-09T08:27:43;19;18;
60816;PMS5003;51921;51.518;-3.188;2023-10-09T08:30:09;12;12;
60816;PMS5003;51921;51.518;-3.188;2023-10-09T08:32:34;19;19;
60816;PMS5003;51921;51.518;-3.188;2023-10-09T08:35:00;16;16;
60816;PMS5003;51921;51.518;-3.188;2023-10-09T08:37:25;19;17;
60816;PMS5003;51921;51.518;-3.188;2023-10-09T08:39:50;22;18;
60816;PMS5003;51921;51.518;-3.188;2023-10-09T08:42:16;29;26;
60816;PMS5003;51921;51.518;-3.188;2023-10-09T08:44:41;21;19;
60816;PMS5003;51921;51.518;-3.188;2023-10-09T08:47:07;23;22;
60816;PMS5003;51921;51.518;-3.188;2023-10-09T08:49:33;27;26;
60816;PMS5003;51921;51.518;-3.188;2023-10-09T08:51:58;32;28;
60816;PMS5003;51921;51.518;-3.188;2023-10-09T08:54:24;26;25;
60816;PMS5003;51921;51.518;-3.188;2023-10-09T08:56:49;31;28;
60816;PMS5003;51921;51.518;-3.188;2023-10-09T08:59:15;33;31;
60816;PMS5003;51921;51.518;-3.188;2023-10-09T09:01:40;33;30;
60816;PMS5003;51921;51.518;-3.188;2023-10-09T09:04:05;29;28;
60816;PMS5003;51921;51.518;-3.188;2023-10-09T09:08:56;30;28;
60816;PMS5003;51921;51.518;-3.188;2023-10-09T09:11:21;30;29;
60816;PMS5003;51921;51.518;-3.188;2023-10-09T09:13:47;29;28;
60816;PMS5003;51921;51.518;-3.188;2023-10-09T09:16:13;26;24;
60816;PMS5003;51921;51.518;-3.188;2023-10-09T09:18:40;31;29;
60816;PMS5003;51921;51.518;-3.188;2023-10-09T09:21:02;28;25;
60816;PMS5003;51921;51.518;-3.188;2023-10-09T09:23:27;24;23;
60816;PMS5003;51921;51.518;-3.188;2023-10-09T09:25:52;31;28;
60816;PMS5003;51921;51.518;-3.188;2023-10-09T09:28:18;33;30;
60816;PMS5003;51921;51.518;-3.188;2023-10-09T09:30:43;32;29;
60816;PMS5003;51921;51.518;-3.188;2023-10-09T09:33:17;24;23;
60816;PMS5003;51921;51.518;-3.188;2023-10-09T09:35:34;25;24;
60816;PMS5003;51921;51.518;-3.188;2023-10-09T09:38:00;27;25;
60816;PMS5003;51921;51.518;-3.188;2023-10-09T09:40:25;26;25;
60816;PMS5003;51921;51.518;-3.188;2023-10-09T09:42:51;31;28;
60816;PMS5003;51921;51.518;-3.188;2023-10-09T09:45:16;29;29;
60816;PMS5003;51921;51.518;-3.188;2023-10-09T09:47:41;25;23;
60816;PMS5003;51921;51.518;-3.188;2023-10-09T09:50:06;22;20;
60816;PMS5003;51921;51.518;-3.188;2023-10-09T09:52:31;25;21;
60816;PMS5003;51921;51.518;-3.188;2023-10-09T09:54:56;25;24;
60816;PMS5003;51921;51.518;-3.188;2023-10-09T09:57:23;21;20;
60816;PMS5003;51921;51.518;-3.188;2023-10-09T09:59:47;22;21;
60816;PMS5003;51921;51.518;-3.188;2023-10-09T10:02:13;23;21;
60816;PMS5003;51921;51.518;-3.188;2023-10-09T10:04:39;18;18;
60816;PMS5003;51921;51.518;-3.188;2023-10-09T10:07:03;22;20;
60816;PMS5003;51921;51.518;-3.188;2023-10-09T10:09:34;19;19;
60816;PMS5003;51921;51.518;-3.188;2023-10-09T10:11:53;28;26;
60816;PMS5003;51921;51.518;-3.188;2023-10-09T10:14:18;21;20;
60816;PMS5003;51921;51.518;-3.188;2023-10-09T10:19:09;21;20;
60816;PMS5003;51921;51.518;-3.188;2023-10-09T10:21:35;27;24;
60816;PMS5003;51921;51.518;-3.188;2023-10-09T10:24:00;20;18;
60816;PMS5003;51921;51.518;-3.188;2023-10-09T10:26:25;25;24;
60816;PMS5003;51921;51.518;-3.188;2023-10-09T10:31:16;24;24;
60816;PMS5003;51921;51.518;-3.188;2023-10-09T10:36:06;26;24;
60816;PMS5003;51921;51.518;-3.188;2023-10-09T10:38:32;28;26;
60816;PMS5003;51921;51.518;-3.188;2023-10-09T10:43:23;23;21;
60816;PMS5003;51921;51.518;-3.188;2023-10-09T10:45:48;21;21;
60816;PMS5003;51921;51.518;-3.188;2023-10-09T10:48:13;23;23;
60816;PMS5003;51921;51.518;-3.188;2023-10-09T10:50:38;22;21;
60816;PMS5003;51921;51.518;-3.188;2023-10-09T10:53:07;16;16;
60816;PMS5003;51921;51.518;-3.188;2023-10-09T10:55:29;27;25;
60816;PMS5003;51921;51.518;-3.188;2023-10-09T10:57:55;24;23;
60816;PMS5003;51921;51.518;-3.188;2023-10-09T11:00:20;29;26;
60816;PMS5003;51921;51.518;-3.188;2023-10-09T11:02:45;24;24;
60816;PMS5003;51921;51.518;-3.188;2023-10-09T11:05:10;23;21;
60816;PMS5003;51921;51.518;-3.188;2023-10-09T11:07:36;27;25;
60816;PMS5003;51921;51.518;-3.188;2023-10-09T11:10:01;24;24;
60816;PMS5003;51921;51.518;-3.188;2023-10-09T11:12:26;26;24;
60816;PMS5003;51921;51.518;-3.188;2023-10-09T11:14:51;25;24;
60816;PMS5003;51921;51.518;-3.188;2023-10-09T11:17:16;23;22;
60816;PMS5003;51921;51.518;-3.188;2023-10-09T11:19:42;23;22;
60816;PMS5003;51921;51.518;-3.188;2023-10-09T11:22:07;27;25;
60816;PMS5003;51921;51.518;-3.188;2023-10-09T11:24:33;23;21;
60816;PMS5003;51921;51.518;-3.188;2023-10-09T11:26:57;23;21;
60816;PMS5003;51921;51.518;-3.188;2023-10-09T11:29:23;24;22;
60816;PMS5003;51921;51.518;-3.188;2023-10-09T11:34:18;21;19;
60816;PMS5003;51921;51.518;-3.188;2023-10-09T11:36:38;21;19;
60816;PMS5003;51921;51.518;-3.188;2023-10-09T11:39:04;20;19;
60816;PMS5003;51921;51.518;-3.188;2023-10-09T11:41:29;25;24;
60816;PMS5003;51921;51.518;-3.188;2023-10-09T11:43:54;22;22;
60816;PMS5003;51921;51.518;-3.188;2023-10-09T11:46:20;20;19;
60816;PMS5003;51921;51.518;-3.188;2023-10-09T11:48:45;19;17;
60816;PMS5003;51921;51.518;-3.188;2023-10-09T11:51:12;23;21;
60816;PMS5003;51921;51.518;-3.188;2023-10-09T11:53:39;18;17;
60816;PMS5003;51921;51.518;-3.188;2023-10-09T11:56:01;16;16;
60816;PMS5003;51921;51.518;-3.188;2023-10-09T11:58:26;20;17;
60816;PMS5003;51921;51.518;-3.188;2023-10-09T12:00:52;21;20;
60816;PMS5003;51921;51.518;-3.188;2023-10-09T12:03:17;19;19;
60816;PMS5003;51921;51.518;-3.188;2023-10-09T12:05:43;16;16;
60816;PMS5003;51921;51.518;-3.188;2023-10-09T12:08:08;15;15;
60816;PMS5003;51921;51.518;-3.188;2023-10-09T12:10:33;21;20;
60816;PMS5003;51921;51.518;-3.188;2023-10-09T12:12:58;18;17;
60816;PMS5003;51921;51.518;-3.188;2023-10-09T12:15:24;18;18;
60816;PMS5003;51921;51.518;-3.188;2023-10-09T12:17:48;19;19;
60816;PMS5003;51921;51.518;-3.188;2023-10-09T12:20:14;14;14;
60816;PMS5003;51921;51.518;-3.188;2023-10-09T12:22:39;20;18;
60816;PMS5003;51921;51.518;-3.188;2023-10-09T12:25:04;15;14;
60816;PMS5003;51921;51.518;-3.188;2023-10-09T12:27:30;17;17;
60816;PMS5003;51921;51.518;-3.188;2023-10-09T12:29:56;21;20;
60816;PMS5003;51921;51.518;-3.188;2023-10-09T12:32:21;20;19;
60816;PMS5003;51921;51.518;-3.188;2023-10-09T12:34:47;19;17;
60816;PMS5003;51921;51.518;-3.188;2023-10-09T12:37:13;15;15;
60816;PMS5003;51921;51.518;-3.188;2023-10-09T12:39:38;17;16;
60816;PMS5003;51921;51.518;-3.188;2023-10-09T12:42:03;17;16;
60816;PMS5003;51921;51.518;-3.188;2023-10-09T12:44:28;18;17;
60816;PMS5003;51921;51.518;-3.188;2023-10-09T12:46:54;16;15;
60816;PMS5003;51921;51.518;-3.188;2023-10-09T12:49:21;17;17;
60816;PMS5003;51921;51.518;-3.188;2023-10-09T12:51:46;17;17;
60816;PMS5003;51921;51.518;-3.188;2023-10-09T12:54:11;18;16;
60816;PMS5003;51921;51.518;-3.188;2023-10-09T12:56:36;16;16;
60816;PMS5003;51921;51.518;-3.188;2023-10-09T12:59:02;18;17;
60816;PMS5003;51921;51.518;-3.188;2023-10-09T13:01:27;15;15;
60816;PMS5003;51921;51.518;-3.188;2023-10-09T13:03:52;14;14;
60816;PMS5003;51921;51.518;-3.188;2023-10-09T13:06:17;12;11;
60816;PMS5003;51921;51.518;-3.188;2023-10-09T13:08:43;14;14;
60816;PMS5003;51921;51.518;-3.188;2023-10-09T13:11:09;13;13;
60816;PMS5003;51921;51.518;-3.188;2023-10-09T13:13:33;13;12;
60816;PMS5003;51921;51.518;-3.188;2023-10-09T13:15:59;12;12;
60816;PMS5003;51921;51.518;-3.188;2023-10-09T13:18:24;13;12;
60816;PMS5003;51921;51.518;-3.188;2023-10-09T13:20:49;11;11;
60816;PMS5003;51921;51.518;-3.188;2023-10-09T13:23:15;13;12;
60816;PMS5003;51921;51.518;-3.188;2023-10-09T13:25:40;11;10;
60816;PMS5003;51921;51.518;-3.188;2023-10-09T13:28:05;10;10;
60816;PMS5003;51921;51.518;-3.188;2023-10-09T13:30:30;10;9;
60816;PMS5003;51921;51.518;-3.188;2023-10-09T13:32:56;10;9;
60816;PMS5003;51921;51.518;-3.188;2023-10-09T13:35:21;12;10;
60816;PMS5003;51921;51.518;-3.188;2023-10-09T13:37:46;9;9;
60816;PMS5003;51921;51.518;-3.188;2023-10-09T13:40:11;9;9;
60816;PMS5003;51921;51.518;-3.188;2023-10-09T13:42:36;9;9;
60816;PMS5003;51921;51.518;-3.188;2023-10-09T13:45:02;7;7;
60816;PMS5003;51921;51.518;-3.188;2023-10-09T13:47:28;8;8;
60816;PMS5003;51921;51.518;-3.188;2023-10-09T13:49:53;9;7;
60816;PMS5003;51921;51.518;-3.188;2023-10-09T13:52:18;9;8;
60816;PMS5003;51921;51.518;-3.188;2023-10-09T13:54:43;8;7;
60816;PMS5003;51921;51.518;-3.188;2023-10-09T13:57:09;6;6;
60816;PMS5003;51921;51.518;-3.188;2023-10-09T13:59:34;8;7;
60816;PMS5003;51921;51.518;-3.188;2023-10-09T14:01:59;6;6;
60816;PMS5003;51921;51.518;-3.188;2023-10-09T14:04:25;5;5;
60816;PMS5003;51921;51.518;-3.188;2023-10-09T14:06:50;7;6;
60816;PMS5003;51921;51.518;-3.188;2023-10-09T14:09:15;6;4;
60816;PMS5003;51921;51.518;-3.188;2023-10-09T14:11:40;7;6;
60816;PMS5003;51921;51.518;-3.188;2023-10-09T14:14:06;9;6;
60816;PMS5003;51921;51.518;-3.188;2023-10-09T14:16:31;8;8;
60816;PMS5003;51921;51.518;-3.188;2023-10-09T14:18:56;7;7;
60816;PMS5003;51921;51.518;-3.188;2023-10-09T14:21:22;8;7;
60816;PMS5003;51921;51.518;-3.188;2023-10-09T14:23:47;7;7;
60816;PMS5003;51921;51.518;-3.188;2023-10-09T14:26:13;7;6;
60816;PMS5003;51921;51.518;-3.188;2023-10-09T14:28:38;11;7;
60816;PMS5003;51921;51.518;-3.188;2023-10-09T14:31:03;7;7;
60816;PMS5003;51921;51.518;-3.188;2023-10-09T14:33:29;8;7;
60816;PMS5003;51921;51.518;-3.188;2023-10-09T14:35:54;6;6;
60816;PMS5003;51921;51.518;-3.188;2023-10-09T14:38:19;8;8;
60816;PMS5003;51921;51.518;-3.188;2023-10-09T14:40:45;7;7;
60816;PMS5003;51921;51.518;-3.188;2023-10-09T14:43:10;7;7;
60816;PMS5003;51921;51.518;-3.188;2023-10-09T14:45:36;8;8;
60816;PMS5003;51921;51.518;-3.188;2023-10-09T14:48:00;11;9;
60816;PMS5003;51921;51.518;-3.188;2023-10-09T14:50:26;10;9;
60816;PMS5003;51921;51.518;-3.188;2023-10-09T14:52:51;8;8;
60816;PMS5003;51921;51.518;-3.188;2023-10-09T14:55:16;10;10;
60816;PMS5003;51921;51.518;-3.188;2023-10-09T14:57:42;10;8;
60816;PMS5003;51921;51.518;-3.188;2023-10-09T15:00:07;9;8;
60816;PMS5003;51921;51.518;-3.188;2023-10-09T15:02:32;8;8;
60816;PMS5003;51921;51.518;-3.188;2023-10-09T15:04:57;8;7;
60816;PMS5003;51921;51.518;-3.188;2023-10-09T15:07:23;6;6;
60816;PMS5003;51921;51.518;-3.188;2023-10-09T15:09:49;9;9;
60816;PMS5003;51921;51.518;-3.188;2023-10-09T15:12:14;8;7;
60816;PMS5003;51921;51.518;-3.188;2023-10-09T15:14:39;9;8;
60816;PMS5003;51921;51.518;-3.188;2023-10-09T15:17:05;9;9;
60816;PMS5003;51921;51.518;-3.188;2023-10-09T15:19:30;7;6;
60816;PMS5003;51921;51.518;-3.188;2023-10-09T15:21:55;10;9;
60816;PMS5003;51921;51.518;-3.188;2023-10-09T15:24:21;5;5;
60816;PMS5003;51921;51.518;-3.188;2023-10-09T15:26:46;8;6;
60816;PMS5003;51921;51.518;-3.188;2023-10-09T15:29:11;5;5;
60816;PMS5003;51921;51.518;-3.188;2023-10-09T15:31:36;8;8;
60816;PMS5003;51921;51.518;-3.188;2023-10-09T15:34:02;7;7;
60816;PMS5003;51921;51.518;-3.188;2023-10-09T15:36:27;6;6;
60816;PMS5003;51921;51.518;-3.188;2023-10-09T15:38:52;8;8;
60816;PMS5003;51921;51.518;-3.188;2023-10-09T15:41:18;10;9;
60816;PMS5003;51921;51.518;-3.188;2023-10-09T15:43:43;8;7;
60816;PMS5003;51921;51.518;-3.188;2023-10-09T15:46:10;6;6;
60816;PMS5003;51921;51.518;-3.188;2023-10-09T15:48:34;7;7;
60816;PMS5003;51921;51.518;-3.188;2023-10-09T15:50:59;8;8;
60816;PMS5003;51921;51.518;-3.188;2023-10-09T15:53:24;7;7;
60816;PMS5003;51921;51.518;-3.188;2023-10-09T15:55:50;8;8;
60816;PMS5003;51921;51.518;-3.188;2023-10-09T15:58:15;8;8;
60816;PMS5003;51921;51.518;-3.188;2023-10-09T16:00:43;8;8;
60816;PMS5003;51921;51.518;-3.188;2023-10-09T16:03:06;13;13;
60816;PMS5003;51921;51.518;-3.188;2023-10-09T16:05:31;6;5;
60816;PMS5003;51921;51.518;-3.188;2023-10-09T16:07:57;8;7;